createdAt,value
2022-09-02T00:01:24.114Z,16.10
2022-09-02T00:03:53.016Z,16.10
2022-09-02T00:06:20.137Z,16.00
2022-09-02T00:08:47.245Z,16.10
2022-09-02T00:11:17.476Z,16.10
2022-09-02T00:13:45.261Z,16.10
2022-09-02T00:16:13.392Z,16.10
2022-09-02T00:18:44.845Z,16.00
2022-09-02T00:21:15.163Z,16.00
2022-09-02T00:23:43.988Z,15.90
2022-09-02T00:26:11.871Z,15.90
2022-09-02T00:28:39.526Z,15.90
2022-09-02T00:31:11.627Z,16.00
2022-09-02T00:33:39.610Z,15.90
2022-09-02T00:36:07.294Z,15.90
2022-09-02T00:38:37.163Z,16.00
2022-09-02T00:41:07.338Z,15.90
2022-09-02T00:43:43.485Z,15.90
2022-09-02T00:46:11.798Z,15.90
2022-09-02T00:48:43.582Z,15.80
2022-09-02T00:51:12.517Z,15.80
2022-09-02T00:53:43.088Z,15.70
2022-09-02T00:56:16.114Z,15.80
2022-09-02T00:58:43.632Z,15.80
2022-09-02T01:01:14.746Z,15.80
2022-09-02T01:03:42.247Z,15.80
2022-09-02T01:06:15.596Z,15.70
2022-09-02T01:08:49.456Z,15.70
2022-09-02T01:11:19.046Z,15.70
2022-09-02T01:13:46.219Z,15.80
2022-09-02T01:16:31.134Z,15.80
2022-09-02T01:19:02.057Z,15.80
2022-09-02T01:21:29.371Z,15.80
2022-09-02T01:23:56.804Z,15.80
2022-09-02T01:26:23.923Z,15.70
2022-09-02T01:28:51.388Z,15.70
2022-09-02T01:31:18.534Z,15.60
2022-09-02T01:33:45.745Z,15.70
2022-09-02T01:36:12.781Z,15.70
2022-09-02T01:38:40.059Z,15.70
2022-09-02T01:41:07.082Z,15.70
2022-09-02T01:43:34.593Z,15.50
2022-09-02T01:46:02.967Z,15.50
2022-09-02T01:48:30.095Z,15.50
2022-09-02T01:51:00.217Z,15.60
2022-09-02T01:53:28.143Z,15.50
2022-09-02T01:55:55.479Z,15.50
2022-09-02T01:58:23.445Z,15.50
2022-09-02T02:00:50.998Z,15.60
2022-09-02T02:03:18.677Z,15.50
2022-09-02T02:05:45.762Z,15.40
2022-09-02T02:08:13.159Z,15.50
2022-09-02T02:10:42.867Z,15.40
2022-09-02T02:13:10.649Z,15.40
2022-09-02T02:15:40.156Z,15.30
2022-09-02T02:18:08.033Z,15.40
2022-09-02T02:20:35.183Z,15.40
2022-09-02T02:23:02.624Z,15.30
2022-09-02T02:25:29.764Z,15.30
2022-09-02T02:27:56.817Z,15.30
2022-09-02T02:30:24.325Z,15.30
2022-09-02T02:32:51.694Z,15.30
2022-09-02T02:35:20.261Z,15.30
2022-09-02T02:37:50.383Z,15.30
2022-09-02T02:40:21.249Z,15.30
2022-09-02T02:42:50.286Z,15.20
2022-09-02T02:45:17.353Z,15.20
2022-09-02T02:47:47.416Z,15.20
2022-09-02T02:50:17.772Z,15.20
2022-09-02T02:52:45.419Z,15.20
2022-09-02T02:55:13.758Z,15.20
2022-09-02T02:57:43.034Z,15.20
2022-09-02T03:00:24.162Z,15.20
2022-09-02T03:03:03.601Z,15.20
2022-09-02T03:05:31.557Z,15.10
2022-09-02T03:07:58.741Z,15.10
2022-09-02T03:10:27.425Z,15.10
2022-09-02T03:12:54.904Z,15.10
2022-09-02T03:15:22.112Z,15.10
2022-09-02T03:17:49.467Z,15.10
2022-09-02T03:20:18.314Z,15.00
2022-09-02T03:22:47.992Z,15.10
2022-09-02T03:25:18.435Z,15.10
2022-09-02T03:27:46.173Z,15.10
2022-09-02T03:30:18.138Z,15.00
2022-09-02T03:32:45.247Z,14.90
2022-09-02T03:35:16.233Z,14.90
2022-09-02T03:37:43.550Z,14.90
2022-09-02T03:40:14.559Z,14.90
2022-09-02T03:42:41.903Z,14.90
2022-09-02T03:45:12.318Z,14.90
2022-09-02T03:47:44.162Z,15.00
2022-09-02T03:50:11.559Z,15.00
2022-09-02T03:52:39.088Z,14.90
2022-09-02T03:55:06.864Z,14.90
2022-09-02T03:57:37.498Z,14.90
2022-09-02T04:00:10.277Z,14.90
2022-09-02T04:02:37.831Z,14.90
2022-09-02T04:05:06.188Z,14.90
2022-09-02T04:07:41.416Z,14.90
2022-09-02T04:10:10.620Z,14.80
2022-09-02T04:12:38.784Z,14.80
2022-09-02T04:15:08.586Z,14.90
2022-09-02T04:17:41.650Z,15.00
2022-09-02T04:20:12.060Z,14.90
2022-09-02T04:22:39.498Z,14.80
2022-09-02T04:25:08.347Z,14.80
2022-09-02T04:27:36.471Z,14.80
2022-09-02T04:30:05.074Z,14.80
2022-09-02T04:32:37.073Z,14.70
2022-09-02T04:35:08.217Z,14.90
2022-09-02T04:37:35.300Z,14.80
2022-09-02T04:40:02.647Z,14.70
2022-09-02T04:42:29.780Z,14.60
2022-09-02T04:44:58.251Z,14.70
2022-09-02T04:47:26.688Z,14.50
2022-09-02T04:49:54.434Z,14.50
2022-09-02T04:52:22.226Z,14.50
2022-09-02T04:54:49.680Z,14.60
2022-09-02T04:57:16.963Z,14.60
2022-09-02T04:59:44.303Z,14.60
2022-09-02T05:02:12.245Z,14.60
2022-09-02T05:04:39.868Z,14.70
2022-09-02T05:07:07.328Z,14.80
2022-09-02T05:09:35.600Z,14.90
2022-09-02T05:12:04.949Z,14.90
2022-09-02T05:14:33.047Z,14.90
2022-09-02T05:17:06.676Z,14.90
2022-09-02T05:19:35.081Z,14.90
2022-09-02T05:22:04.927Z,14.90
2022-09-02T05:24:32.261Z,14.90
2022-09-02T05:26:59.758Z,15.00
2022-09-02T05:29:27.084Z,14.90
2022-09-02T05:31:54.322Z,14.90
2022-09-02T05:34:22.899Z,14.90
2022-09-02T05:36:50.257Z,14.90
2022-09-02T05:39:17.691Z,15.00
2022-09-02T05:41:44.893Z,15.10
2022-09-02T05:44:13.063Z,15.20
2022-09-02T05:46:40.458Z,15.40
2022-09-02T05:49:08.127Z,15.40
2022-09-02T05:51:42.203Z,15.40
2022-09-02T05:54:21.543Z,15.30
2022-09-02T05:56:55.162Z,15.20
2022-09-02T05:59:23.685Z,15.20
2022-09-02T06:01:51.460Z,15.10
2022-09-02T06:04:18.765Z,15.10
2022-09-02T06:06:46.489Z,15.10
2022-09-02T06:09:17.083Z,15.10
2022-09-02T06:11:45.555Z,15.00
2022-09-02T06:14:17.297Z,15.10
2022-09-02T06:16:44.762Z,15.20
2022-09-02T06:19:15.268Z,15.20
2022-09-02T06:21:44.756Z,15.40
2022-09-02T06:24:13.258Z,15.60
2022-09-02T06:26:41.770Z,16.20
2022-09-02T06:29:10.626Z,16.50
2022-09-02T06:31:40.645Z,16.30
2022-09-02T06:34:07.719Z,16.30
2022-09-02T06:36:34.796Z,16.50
2022-09-02T06:39:01.905Z,16.50
2022-09-02T06:41:31.664Z,16.50
2022-09-02T06:44:02.435Z,16.50
2022-09-02T06:46:33.563Z,16.50
2022-09-02T06:49:01.897Z,16.50
2022-09-02T06:51:34.617Z,16.60
2022-09-02T06:54:02.230Z,16.60
2022-09-02T06:56:29.642Z,16.70
2022-09-02T06:58:57.730Z,16.80
2022-09-02T07:01:27.866Z,16.80
2022-09-02T07:04:14.303Z,16.90
2022-09-02T07:06:44.731Z,17.00
2022-09-02T07:09:15.342Z,17.10
2022-09-02T07:11:42.514Z,17.20
2022-09-02T07:14:09.581Z,17.20
2022-09-02T07:16:43.308Z,17.60
2022-09-02T07:19:15.058Z,17.80
2022-09-02T07:21:44.543Z,17.70
2022-09-02T07:24:13.611Z,17.70
2022-09-02T07:26:41.810Z,17.80
2022-09-02T07:29:10.059Z,17.80
2022-09-02T07:31:39.297Z,18.10
2022-09-02T07:34:07.356Z,18.10
2022-09-02T07:36:38.221Z,18.20
2022-09-02T07:39:07.988Z,18.40
2022-09-02T07:41:36.276Z,18.50
2022-09-02T07:44:04.904Z,18.50
2022-09-02T07:46:32.407Z,18.90
2022-09-02T07:49:01.966Z,19.10
2022-09-02T07:51:30.852Z,19.30
2022-09-02T07:53:58.526Z,19.10
2022-09-02T07:56:25.734Z,19.10
2022-09-02T07:58:52.916Z,19.30
2022-09-02T08:01:23.738Z,19.40
2022-09-02T08:03:51.978Z,19.50
2022-09-02T08:06:33.741Z,19.70
2022-09-02T08:09:06.976Z,19.70
2022-09-02T08:11:39.459Z,19.50
2022-09-02T08:14:12.088Z,19.50
2022-09-02T08:16:39.980Z,19.80
2022-09-02T08:19:08.197Z,20.10
2022-09-02T08:21:35.886Z,20.20
2022-09-02T08:24:04.260Z,20.20
2022-09-02T08:26:32.273Z,20.20
2022-09-02T08:28:59.394Z,20.30
2022-09-02T08:31:26.529Z,20.50
2022-09-02T08:33:53.813Z,20.90
2022-09-02T08:36:22.631Z,20.90
2022-09-02T08:38:49.946Z,20.80
2022-09-02T08:41:39.425Z,20.70
2022-09-02T08:44:07.857Z,20.70
2022-09-02T08:46:36.621Z,20.80
2022-09-02T08:49:38.175Z,20.80
2022-09-02T08:52:06.688Z,20.80
2022-09-02T08:54:49.544Z,20.90
2022-09-02T08:57:17.980Z,20.80
2022-09-02T08:59:45.872Z,20.60
2022-09-02T09:02:22.977Z,20.70
2022-09-02T09:05:25.779Z,20.90
2022-09-02T09:08:05.287Z,21.00
2022-09-02T09:10:38.946Z,21.10
2022-09-02T09:13:19.524Z,21.10
2022-09-02T09:16:00.961Z,21.10
2022-09-02T09:18:41.266Z,21.30
2022-09-02T09:21:10.947Z,21.40
2022-09-02T09:23:41.955Z,21.50
2022-09-02T09:26:14.853Z,21.70
2022-09-02T09:28:45.036Z,21.50
2022-09-02T09:31:20.162Z,21.70
2022-09-02T09:33:57.432Z,21.70
2022-09-02T09:36:49.829Z,21.70
2022-09-02T09:39:31.857Z,21.70
2022-09-02T09:42:07.948Z,21.90
2022-09-02T09:44:38.071Z,22.00
2022-09-02T09:47:20.057Z,22.20
2022-09-02T09:49:52.865Z,22.30
2022-09-02T09:52:31.396Z,22.40
2022-09-02T09:55:24.331Z,22.40
2022-09-02T09:57:54.372Z,22.70
2022-09-02T10:00:34.729Z,22.60
2022-09-02T10:03:08.752Z,22.70
2022-09-02T10:05:36.912Z,22.80
2022-09-02T10:08:26.658Z,22.60
2022-09-02T10:11:19.913Z,22.70
2022-09-02T10:13:47.234Z,22.90
2022-09-02T10:16:32.870Z,23.00
2022-09-02T10:19:34.607Z,22.90
2022-09-02T10:22:21.370Z,23.00
2022-09-02T10:25:27.350Z,23.50
2022-09-02T10:28:09.865Z,23.30
2022-09-02T10:30:55.658Z,23.00
2022-09-02T10:33:33.676Z,22.70
2022-09-02T10:36:22.082Z,22.50
2022-09-02T10:38:51.792Z,22.50
2022-09-02T10:41:32.067Z,22.60
2022-09-02T10:44:18.624Z,23.00
2022-09-02T10:47:01.892Z,23.40
2022-09-02T10:50:14.819Z,23.30
2022-09-02T10:53:03.681Z,23.10
2022-09-02T10:55:55.050Z,23.60
2022-09-02T10:58:43.951Z,23.70
2022-09-02T11:01:47.468Z,23.70
2022-09-02T11:04:31.367Z,23.70
2022-09-02T11:07:03.487Z,23.60
2022-09-02T11:09:37.667Z,23.70
2022-09-02T11:12:17.644Z,23.70
2022-09-02T11:15:35.900Z,23.50
2022-09-02T11:18:31.397Z,23.10
2022-09-02T11:21:10.696Z,22.90
2022-09-02T11:23:48.169Z,22.90
2022-09-02T11:26:21.469Z,23.10
2022-09-02T11:28:58.304Z,23.10
2022-09-02T11:31:40.797Z,22.90
2022-09-02T11:34:35.992Z,22.60
2022-09-02T11:37:05.233Z,22.50
2022-09-02T11:40:17.025Z,22.60
2022-09-02T11:43:16.976Z,23.10
2022-09-02T11:46:20.386Z,23.40
2022-09-02T11:49:30.256Z,23.30
2022-09-02T11:55:04.533Z,23.50
2022-09-02T11:57:33.198Z,23.60
2022-09-02T12:00:00.513Z,23.80
2022-09-02T12:02:56.598Z,23.90
2022-09-02T12:05:32.659Z,23.70
2022-09-02T12:08:25.765Z,24.30
2022-09-02T12:10:52.904Z,25.10
2022-09-02T12:13:45.276Z,26.40
2022-09-02T12:16:16.436Z,26.30
2022-09-02T12:18:57.881Z,26.10
2022-09-02T12:21:30.251Z,26.60
2022-09-02T12:23:57.369Z,26.80
2022-09-02T12:26:28.714Z,25.70
2022-09-02T12:29:22.208Z,24.60
2022-09-02T12:31:52.079Z,24.70
2022-09-02T12:34:25.424Z,25.10
2022-09-02T12:37:02.850Z,25.70
2022-09-02T12:39:30.782Z,25.00
2022-09-02T12:41:57.945Z,24.70
2022-09-02T12:44:37.421Z,24.80
2022-09-02T12:47:26.785Z,24.90
2022-09-02T12:50:27.133Z,25.90
2022-09-02T12:53:23.895Z,26.90
2022-09-02T12:56:02.226Z,27.60
2022-09-02T12:58:58.892Z,26.90
2022-09-02T13:01:42.512Z,25.10
2022-09-02T13:04:53.385Z,24.60
2022-09-02T13:07:37.134Z,25.20
2022-09-02T13:10:22.330Z,25.70
2022-09-02T13:13:21.039Z,25.90
2022-09-02T13:16:07.725Z,26.90
2022-09-02T13:19:20.237Z,26.80
2022-09-02T13:25:53.083Z,26.70
2022-09-02T13:28:40.984Z,27.90
2022-09-02T13:31:13.501Z,28.10
2022-09-02T13:33:42.646Z,27.20
2022-09-02T13:36:10.278Z,27.10
2022-09-02T13:38:38.997Z,26.30
2022-09-02T13:41:06.451Z,25.70
2022-09-02T13:43:33.608Z,25.20
2022-09-02T13:46:02.458Z,25.40
2022-09-02T13:48:32.476Z,25.50
2022-09-02T13:51:18.066Z,25.90
2022-09-02T13:54:18.702Z,27.00
2022-09-02T13:56:36.679Z,27.50
2022-09-02T13:59:04.071Z,27.20
2022-09-02T14:01:40.275Z,26.80
2022-09-02T14:04:12.713Z,25.80
2022-09-02T14:06:44.787Z,25.00
2022-09-02T14:09:21.542Z,24.70
2022-09-02T14:11:49.905Z,24.90
2022-09-02T14:14:20.204Z,25.90
2022-09-02T14:16:47.674Z,26.50
2022-09-02T14:19:17.920Z,26.50
2022-09-02T14:21:59.219Z,26.10
2022-09-02T14:24:29.030Z,26.40
2022-09-02T14:26:58.157Z,26.40
2022-09-02T14:29:28.182Z,26.80
2022-09-02T14:32:13.970Z,27.50
2022-09-02T14:34:50.920Z,27.60
2022-09-02T14:37:25.526Z,27.80
2022-09-02T14:39:53.807Z,28.20
2022-09-02T14:42:21.134Z,28.30
2022-09-02T14:44:48.195Z,27.80
2022-09-02T14:47:20.665Z,27.80
2022-09-02T14:49:53.084Z,27.50
2022-09-02T14:52:25.749Z,27.70
2022-09-02T14:54:54.470Z,27.30
2022-09-02T14:57:32.982Z,26.50
2022-09-02T15:00:08.550Z,26.30
2022-09-02T15:02:36.610Z,26.20
2022-09-02T15:05:10.509Z,26.30
2022-09-02T15:07:37.615Z,27.30
2022-09-02T15:10:09.350Z,27.20
2022-09-02T15:12:51.072Z,27.10
2022-09-02T15:15:18.455Z,27.30
2022-09-02T15:17:45.853Z,27.50
2022-09-02T15:20:13.393Z,27.70
2022-09-02T15:22:40.571Z,28.10
2022-09-02T15:25:09.626Z,28.10
2022-09-02T15:27:37.504Z,28.10
2022-09-02T15:30:06.101Z,27.80
2022-09-02T15:32:33.206Z,27.70
2022-09-02T15:35:00.217Z,27.40
2022-09-02T15:37:28.051Z,27.10
2022-09-02T15:39:55.433Z,27.00
2022-09-02T15:42:23.163Z,26.70
2022-09-02T15:44:50.176Z,26.20
2022-09-02T15:47:17.325Z,26.30
2022-09-02T15:49:44.323Z,25.70
2022-09-02T15:52:11.379Z,25.40
2022-09-02T15:54:38.442Z,25.40
2022-09-02T15:57:05.662Z,25.20
2022-09-02T15:59:32.736Z,25.20
2022-09-02T16:02:00.779Z,25.20
2022-09-02T16:04:27.903Z,25.10
2022-09-02T16:06:55.056Z,25.20
2022-09-02T16:09:22.928Z,25.50
2022-09-02T16:11:52.455Z,25.20
2022-09-02T16:14:21.265Z,25.00
2022-09-02T16:16:50.521Z,24.60
2022-09-02T16:19:21.742Z,24.60
2022-09-02T16:21:50.144Z,24.60
2022-09-02T16:24:18.639Z,24.70
2022-09-02T16:26:45.657Z,24.30
2022-09-02T16:29:15.188Z,24.20
2022-09-02T16:31:43.738Z,24.20
2022-09-02T16:34:14.511Z,24.00
2022-09-02T16:36:46.705Z,23.90
2022-09-02T16:39:15.585Z,23.90
2022-09-02T16:41:45.704Z,23.80
2022-09-02T16:44:18.664Z,23.80
2022-09-02T16:46:47.898Z,23.80
2022-09-02T16:49:19.954Z,23.70
2022-09-02T16:51:48.494Z,23.60
2022-09-02T16:54:21.136Z,23.60
2022-09-02T16:56:58.165Z,23.50
2022-09-02T16:59:25.210Z,23.50
2022-09-02T17:01:52.282Z,23.40
2022-09-02T17:04:19.345Z,23.30
2022-09-02T17:06:46.393Z,23.20
2022-09-02T17:09:13.385Z,23.10
2022-09-02T17:11:41.501Z,23.00
2022-09-02T17:14:16.909Z,22.90
2022-09-02T17:16:46.936Z,22.80
2022-09-02T17:19:21.023Z,22.70
2022-09-02T17:21:51.036Z,22.70
2022-09-02T17:24:19.869Z,22.70
2022-09-02T17:26:50.795Z,22.60
2022-09-02T17:32:09.905Z,22.40
2022-09-02T17:34:37.943Z,22.20
2022-09-02T17:37:05.773Z,22.10
2022-09-02T17:39:34.418Z,21.90
2022-09-02T17:42:06.542Z,21.80
2022-09-02T17:44:39.961Z,21.80
2022-09-02T17:47:11.294Z,21.70
2022-09-02T17:49:42.365Z,21.70
2022-09-02T17:52:10.308Z,21.70
2022-09-02T17:54:39.709Z,21.60
2022-09-02T17:57:29.093Z,21.40
2022-09-02T18:00:10.057Z,21.30
2022-09-02T18:02:47.483Z,21.10
2022-09-02T18:05:52.809Z,20.90
2022-09-02T18:08:31.926Z,20.80
2022-09-02T18:11:07.755Z,20.80
2022-09-02T18:13:47.636Z,20.70
2022-09-02T18:16:26.885Z,20.60
2022-09-02T18:19:25.457Z,20.40
2022-09-02T18:22:07.080Z,20.20
2022-09-02T18:24:52.229Z,20.00
2022-09-02T18:27:48.090Z,19.90
2022-09-02T18:30:38.692Z,19.70
2022-09-02T18:33:26.558Z,19.60
2022-09-02T18:36:30.610Z,19.60
2022-09-02T18:39:16.545Z,19.50
2022-09-02T18:41:58.846Z,19.50
2022-09-02T18:44:53.479Z,19.40
2022-09-02T18:47:28.472Z,19.40
2022-09-02T18:49:57.876Z,19.40
2022-09-02T18:52:29.721Z,19.30
2022-09-02T18:55:16.998Z,19.30
2022-09-02T18:58:20.109Z,19.30
2022-09-02T19:00:52.612Z,19.30
2022-09-02T19:03:19.815Z,19.30
2022-09-02T19:05:47.002Z,19.30
2022-09-02T19:08:30.680Z,19.10
2022-09-02T19:11:08.129Z,19.00
2022-09-02T19:13:57.885Z,18.90
2022-09-02T19:16:35.509Z,18.80
2022-09-02T19:19:04.274Z,18.70
2022-09-02T19:21:36.392Z,18.60
2022-09-02T19:24:07.732Z,18.50
2022-09-02T19:26:37.908Z,18.70
2022-09-02T19:29:08.449Z,18.70
2022-09-02T19:31:36.529Z,18.70
2022-09-02T19:34:04.883Z,18.70
2022-09-02T19:36:33.636Z,18.60
2022-09-02T19:39:01.969Z,18.60
2022-09-02T19:41:30.214Z,18.50
2022-09-02T19:43:57.896Z,18.50
2022-09-02T19:47:11.926Z,18.50
2022-09-02T19:49:13.060Z,18.40
2022-09-02T19:51:42.629Z,18.40
2022-09-02T19:54:13.297Z,18.30
2022-09-02T19:56:41.210Z,18.20
2022-09-02T19:59:08.418Z,18.10
2022-09-02T20:01:36.502Z,18.10
2022-09-02T20:04:06.324Z,18.00
2022-09-02T20:06:36.730Z,18.00
2022-09-02T20:09:04.394Z,18.00
2022-09-02T20:11:31.668Z,17.90
2022-09-02T20:13:58.748Z,17.80
2022-09-02T20:16:29.376Z,17.70
2022-09-02T20:18:57.032Z,17.80
2022-09-02T20:21:30.645Z,17.80
2022-09-02T20:24:07.775Z,17.80
2022-09-02T20:26:53.484Z,17.70
2022-09-02T20:29:29.940Z,17.60
2022-09-02T20:32:38.258Z,17.60
2022-09-02T20:35:24.489Z,17.60
2022-09-02T20:38:05.043Z,17.60
2022-09-02T20:41:19.397Z,17.60
2022-09-02T20:44:07.162Z,17.60
2022-09-02T20:46:57.471Z,17.60
2022-09-02T20:49:30.535Z,17.50
2022-09-02T20:52:12.361Z,17.50
2022-09-02T20:55:09.815Z,17.50
2022-09-02T20:57:39.654Z,17.40
2022-09-02T21:00:12.022Z,17.40
2022-09-02T21:02:59.186Z,17.40
2022-09-02T21:05:31.561Z,17.30
2022-09-02T21:08:24.896Z,17.30
2022-09-02T21:11:00.348Z,17.30
2022-09-02T21:13:57.390Z,17.20
2022-09-02T21:16:48.757Z,17.20
2022-09-02T21:19:41.855Z,17.20
2022-09-02T21:22:18.944Z,17.10
2022-09-02T21:24:58.223Z,17.10
2022-09-02T21:27:37.480Z,16.90
2022-09-02T21:30:11.006Z,17.00
2022-09-02T21:32:41.957Z,16.90
2022-09-02T21:35:35.826Z,16.80
2022-09-02T21:38:09.337Z,16.80
2022-09-02T21:40:53.592Z,16.70
2022-09-02T21:43:51.690Z,16.70
2022-09-02T21:46:30.193Z,16.60
2022-09-02T21:49:00.437Z,16.60
2022-09-02T21:51:39.382Z,16.60
2022-09-02T21:54:31.950Z,16.50
2022-09-02T21:57:20.591Z,16.50
2022-09-02T22:00:08.312Z,16.60
2022-09-02T22:02:39.342Z,16.50
2022-09-02T22:05:28.137Z,16.50
2022-09-02T22:08:16.775Z,16.50
2022-09-02T22:11:11.621Z,16.40
2022-09-02T22:13:42.084Z,16.40
2022-09-02T22:16:46.683Z,16.40
2022-09-02T22:19:13.761Z,16.30
2022-09-02T22:21:55.575Z,16.30
2022-09-02T22:24:31.441Z,16.30
2022-09-02T22:27:06.471Z,16.30
2022-09-02T22:29:52.175Z,16.20
2022-09-02T22:32:31.814Z,16.20
2022-09-02T22:35:09.734Z,16.30
2022-09-02T22:37:59.232Z,16.40
2022-09-02T22:40:32.852Z,16.40
2022-09-02T22:43:08.502Z,16.30
2022-09-02T22:46:12.862Z,16.30
2022-09-02T22:49:31.293Z,16.20
2022-09-02T22:52:19.734Z,16.20
2022-09-02T22:54:48.765Z,16.20
2022-09-02T22:57:37.314Z,16.20
2022-09-02T23:00:13.239Z,16.20
2022-09-02T23:03:21.546Z,16.10
2022-09-02T23:05:53.571Z,16.10
2022-09-02T23:08:22.532Z,16.20
2022-09-02T23:10:58.708Z,16.20
2022-09-02T23:13:45.216Z,16.20
2022-09-02T23:16:37.643Z,16.30
2022-09-02T23:19:11.927Z,16.20
2022-09-02T23:22:00.936Z,16.00
2022-09-02T23:24:45.142Z,16.00
2022-09-02T23:27:44.469Z,16.10
2022-09-02T23:30:14.625Z,16.10
2022-09-02T23:32:54.210Z,16.10
2022-09-02T23:35:27.864Z,16.20
2022-09-02T23:38:16.677Z,16.10
2022-09-02T23:40:57.470Z,16.20
2022-09-02T23:43:24.577Z,16.10
2022-09-02T23:45:56.429Z,16.10
2022-09-02T23:48:52.548Z,16.10
2022-09-02T23:51:30.653Z,16.10
2022-09-02T23:54:20.633Z,16.10
2022-09-02T23:57:18.603Z,16.10
2022-09-02T23:59:45.846Z,15.90
